createdAt,value
2022-08-04T00:02:23.550Z,57.31
2022-08-04T00:07:43.892Z,58.34
2022-08-04T00:12:51.790Z,59.19
2022-08-04T00:18:00.215Z,60.06
2022-08-04T00:23:03.361Z,61.04
2022-08-04T00:28:07.634Z,68.01
2022-08-04T00:33:10.989Z,61.34
2022-08-04T00:38:17.689Z,54.47
2022-08-04T00:44:23.894Z,54.89
2022-08-04T00:50:09.853Z,56.05
2022-08-04T00:55:24.611Z,57.03
2022-08-04T01:00:33.206Z,58.22
2022-08-04T01:05:47.912Z,59.43
2022-08-04T01:11:04.503Z,60.49
2022-08-04T01:16:11.450Z,67.71
2022-08-04T01:21:31.557Z,61.50
2022-08-04T01:27:05.608Z,54.68
2022-08-04T01:32:19.218Z,55.30
2022-08-04T01:37:48.821Z,56.52
2022-08-04T01:42:53.773Z,57.49
2022-08-04T01:47:57.737Z,59.08
2022-08-04T01:53:01.715Z,60.13
2022-08-04T01:58:05.731Z,67.01
2022-08-04T02:03:09.464Z,61.30
2022-08-04T02:08:27.500Z,54.70
2022-08-04T02:14:00.508Z,55.25
2022-08-04T02:19:23.295Z,56.53
2022-08-04T02:24:27.975Z,57.89
2022-08-04T02:29:43.701Z,59.16
2022-08-04T02:35:00.816Z,59.95
2022-08-04T02:40:06.758Z,67.09
2022-08-04T02:45:12.112Z,60.83
2022-08-04T02:50:15.121Z,54.27
2022-08-04T02:55:33.994Z,54.67
2022-08-04T03:00:37.881Z,56.61
2022-08-04T03:06:10.960Z,57.77
2022-08-04T03:11:43.388Z,58.69
2022-08-04T03:17:12.778Z,60.22
2022-08-04T03:22:15.660Z,67.46
2022-08-04T03:27:48.818Z,60.60
2022-08-04T03:33:13.545Z,54.38
2022-08-04T03:38:34.982Z,55.43
2022-08-04T03:43:57.721Z,56.67
2022-08-04T03:49:40.371Z,58.02
2022-08-04T03:55:10.336Z,59.11
2022-08-04T04:00:18.936Z,60.11
2022-08-04T04:05:30.613Z,66.75
2022-08-04T04:11:07.696Z,60.33
2022-08-04T04:16:38.268Z,54.25
2022-08-04T04:22:24.048Z,55.30
2022-08-04T04:27:48.562Z,56.62
2022-08-04T04:33:08.308Z,57.63
2022-08-04T04:38:19.730Z,58.75
2022-08-04T04:44:03.490Z,59.81
2022-08-04T04:49:41.018Z,66.75
2022-08-04T04:55:10.306Z,57.67
2022-08-04T05:00:14.179Z,57.02
2022-08-04T05:05:34.867Z,58.43
2022-08-04T05:10:56.415Z,59.59
2022-08-04T05:16:06.646Z,60.70
2022-08-04T05:21:33.657Z,67.34
2022-08-04T05:26:45.000Z,61.21
2022-08-04T05:31:52.415Z,54.92
2022-08-04T05:37:02.281Z,56.26
2022-08-04T05:42:07.263Z,57.69
2022-08-04T05:47:13.428Z,58.87
2022-08-04T05:52:18.721Z,59.59
2022-08-04T05:57:21.920Z,60.49
2022-08-04T06:02:27.562Z,60.26
2022-08-04T06:07:30.437Z,66.28
2022-08-04T06:12:49.708Z,59.35
2022-08-04T06:19:57.866Z,54.43
2022-08-04T06:23:20.891Z,55.78
2022-08-04T06:28:24.664Z,57.14
2022-08-04T06:33:54.278Z,58.19
2022-08-04T06:38:59.256Z,59.03
2022-08-04T06:44:10.406Z,59.78
2022-08-04T06:49:14.124Z,59.88
2022-08-04T06:54:17.094Z,60.28
2022-08-04T06:59:22.401Z,61.02
2022-08-04T07:04:25.656Z,61.06
2022-08-04T07:09:28.566Z,66.48
2022-08-04T07:14:36.283Z,57.07
2022-08-04T07:19:39.296Z,55.46
2022-08-04T07:24:43.039Z,55.75
2022-08-04T07:29:47.877Z,56.52
2022-08-04T07:34:52.033Z,56.41
2022-08-04T07:39:55.611Z,56.87
2022-08-04T07:44:59.722Z,55.72
2022-08-04T07:50:03.354Z,55.70
2022-08-04T07:55:07.296Z,55.87
2022-08-04T08:00:12.385Z,55.44
2022-08-04T08:05:17.116Z,54.65
2022-08-04T08:10:20.904Z,54.00
2022-08-04T08:15:24.445Z,52.23
2022-08-04T08:20:31.684Z,52.60
2022-08-04T08:25:34.957Z,53.50
2022-08-04T08:30:38.797Z,53.29
2022-08-04T08:35:54.691Z,53.47
2022-08-04T08:41:25.667Z,52.83
2022-08-04T08:46:48.830Z,52.62
2022-08-04T08:52:10.107Z,51.16
2022-08-04T08:57:13.009Z,49.92
2022-08-04T09:02:18.490Z,48.07
2022-08-04T09:07:47.598Z,48.66
2022-08-04T09:12:59.718Z,48.29
2022-08-04T09:18:24.095Z,48.39
2022-08-04T09:24:03.851Z,48.22
2022-08-04T09:29:53.705Z,49.23
2022-08-04T09:35:41.542Z,48.29
2022-08-04T09:40:57.754Z,44.38
2022-08-04T09:46:21.727Z,44.70
2022-08-04T09:51:57.343Z,45.73
2022-08-04T09:57:22.638Z,44.77
2022-08-04T10:02:29.155Z,45.48
2022-08-04T10:07:38.121Z,45.35
2022-08-04T10:13:21.442Z,45.57
2022-08-04T10:19:12.263Z,45.33
2022-08-04T10:25:00.137Z,44.55
2022-08-04T10:30:12.076Z,44.26
2022-08-04T10:35:23.882Z,45.05
2022-08-04T10:41:11.882Z,45.49
2022-08-04T10:46:23.680Z,45.47
2022-08-04T10:51:57.205Z,45.25
2022-08-04T10:57:08.769Z,44.35
2022-08-04T11:02:26.473Z,44.41
2022-08-04T11:07:33.550Z,43.20
2022-08-04T11:12:39.429Z,42.83
2022-08-04T11:17:46.593Z,43.09
2022-08-04T11:23:11.977Z,42.94
2022-08-04T11:28:24.966Z,41.99
2022-08-04T11:33:38.711Z,41.84
2022-08-04T11:38:52.443Z,42.00
2022-08-04T11:44:02.484Z,41.69
2022-08-04T11:49:26.766Z,41.47
2022-08-04T11:54:32.073Z,40.95
2022-08-04T11:59:37.059Z,40.07
2022-08-04T12:04:55.802Z,40.99
2022-08-04T12:10:10.868Z,40.72
2022-08-04T12:15:15.395Z,40.54
2022-08-04T12:20:38.094Z,40.25
2022-08-04T12:25:48.059Z,38.58
2022-08-04T12:31:05.120Z,40.17
2022-08-04T12:36:31.750Z,39.41
2022-08-04T12:42:02.476Z,38.74
2022-08-04T12:47:36.541Z,38.52
2022-08-04T12:58:16.043Z,38.84
2022-08-04T13:03:20.936Z,38.45
2022-08-04T13:08:24.429Z,38.43
2022-08-04T13:13:29.302Z,37.96
2022-08-04T13:18:35.678Z,38.25
2022-08-04T13:24:10.912Z,37.72
2022-08-04T13:29:16.688Z,36.95
2022-08-04T13:34:20.959Z,37.18
2022-08-04T13:39:25.009Z,37.36
2022-08-04T13:44:34.429Z,37.30
2022-08-04T13:49:54.641Z,36.74
2022-08-04T13:55:00.712Z,36.15
2022-08-04T14:00:09.365Z,35.74
2022-08-04T14:05:28.707Z,35.58
2022-08-04T14:10:34.973Z,35.52
2022-08-04T14:16:01.625Z,35.48
2022-08-04T14:21:13.030Z,35.59
2022-08-04T14:26:32.929Z,35.09
2022-08-04T14:31:36.598Z,35.33
2022-08-04T14:37:16.743Z,35.35
2022-08-04T14:42:43.697Z,34.78
2022-08-04T14:47:52.031Z,34.93
2022-08-04T14:53:03.665Z,35.38
2022-08-04T14:58:36.228Z,35.22
2022-08-04T15:03:31.590Z,36.06
2022-08-04T15:08:34.708Z,36.28
2022-08-04T15:13:38.409Z,36.45
2022-08-04T15:18:41.905Z,36.52
2022-08-04T15:23:44.796Z,37.01
2022-08-04T15:28:53.073Z,37.11
2022-08-04T15:33:57.097Z,37.85
2022-08-04T15:39:13.442Z,37.72
2022-08-04T15:44:30.841Z,37.70
2022-08-04T15:49:34.260Z,38.31
2022-08-04T15:54:37.698Z,38.52
2022-08-04T16:00:02.163Z,39.15
2022-08-04T16:05:18.207Z,39.43
2022-08-04T16:10:30.190Z,39.89
2022-08-04T16:15:38.962Z,39.40
2022-08-04T16:20:46.728Z,39.23
2022-08-04T16:25:55.148Z,39.55
2022-08-04T16:31:12.133Z,40.28
2022-08-04T16:36:16.849Z,40.18
2022-08-04T16:41:39.488Z,40.16
2022-08-04T16:47:08.552Z,40.81
2022-08-04T16:52:13.324Z,40.93
2022-08-04T16:57:16.756Z,41.15
2022-08-04T17:02:25.309Z,41.64
2022-08-04T17:07:28.498Z,41.89
2022-08-04T17:12:31.406Z,42.37
2022-08-04T17:18:04.073Z,42.93
2022-08-04T17:24:14.954Z,43.43
2022-08-04T17:28:56.180Z,43.22
2022-08-04T17:34:03.177Z,43.82
2022-08-04T17:39:21.429Z,44.29
2022-08-04T17:44:37.890Z,44.75
2022-08-04T17:49:52.786Z,45.09
2022-08-04T17:55:02.870Z,45.14
2022-08-04T18:00:07.634Z,45.51
2022-08-04T18:05:50.195Z,45.75
2022-08-04T18:10:56.766Z,45.94
2022-08-04T18:16:04.882Z,46.30
2022-08-04T18:21:08.044Z,46.72
2022-08-04T18:26:10.890Z,46.62
2022-08-04T18:31:21.783Z,47.29
2022-08-04T18:36:35.435Z,47.53
2022-08-04T18:42:01.082Z,47.93
2022-08-04T18:47:22.068Z,47.95
2022-08-04T18:52:26.727Z,47.99
2022-08-04T18:58:01.221Z,48.38
2022-08-04T19:02:55.420Z,48.76
2022-08-04T19:08:11.088Z,48.95
2022-08-04T19:13:25.368Z,48.73
2022-08-04T19:18:31.193Z,48.95
2022-08-04T19:24:28.872Z,49.08
2022-08-04T19:28:57.365Z,49.18
2022-08-04T19:34:05.082Z,49.42
2022-08-04T19:39:11.491Z,49.96
2022-08-04T19:44:15.103Z,50.02
2022-08-04T19:50:02.780Z,50.23
2022-08-04T19:54:43.494Z,50.48
2022-08-04T19:59:52.263Z,50.37
2022-08-04T20:04:58.003Z,50.56
2022-08-04T20:10:04.318Z,50.91
2022-08-04T20:15:08.381Z,51.15
2022-08-04T20:20:15.435Z,51.18
2022-08-04T20:25:36.560Z,51.30
2022-08-04T20:30:40.746Z,51.17
2022-08-04T20:36:03.360Z,51.54
2022-08-04T20:41:08.308Z,51.59
2022-08-04T20:46:18.527Z,51.78
2022-08-04T20:51:33.720Z,52.14
2022-08-04T20:56:50.638Z,52.13
2022-08-04T21:01:54.673Z,52.41
2022-08-04T21:06:59.839Z,52.60
2022-08-04T21:12:05.411Z,52.49
2022-08-04T21:17:08.940Z,52.62
2022-08-04T21:22:29.806Z,53.10
2022-08-04T21:27:39.542Z,53.00
2022-08-04T21:32:42.744Z,53.55
2022-08-04T21:37:57.906Z,53.63
2022-08-04T21:43:04.288Z,53.69
2022-08-04T21:48:07.290Z,53.79
2022-08-04T21:53:12.516Z,54.01
2022-08-04T21:58:15.643Z,54.19
2022-08-04T22:03:51.997Z,54.53
2022-08-04T22:08:43.756Z,54.75
2022-08-04T22:14:10.652Z,54.76
2022-08-04T22:19:14.411Z,55.20
2022-08-04T22:24:26.169Z,55.39
2022-08-04T22:29:32.785Z,55.72
2022-08-04T22:34:39.493Z,55.57
2022-08-04T22:39:56.253Z,55.64
2022-08-04T22:45:02.946Z,55.54
2022-08-04T22:50:27.621Z,55.42
2022-08-04T22:56:07.291Z,55.51
2022-08-04T23:00:54.437Z,55.56
2022-08-04T23:06:10.759Z,55.64
2022-08-04T23:11:14.942Z,55.63
2022-08-04T23:16:19.170Z,55.72
2022-08-04T23:21:24.361Z,55.69
2022-08-04T23:26:28.407Z,55.82
2022-08-04T23:31:41.686Z,55.97
2022-08-04T23:36:55.462Z,56.23
2022-08-04T23:41:58.374Z,56.37
2022-08-04T23:47:02.267Z,56.28
2022-08-04T23:52:05.812Z,56.29
2022-08-04T23:57:26.980Z,56.35
